createdAt,value
2019-02-10T00:00:12.137Z,8.10
2019-02-10T00:02:41.628Z,8.10
2019-02-10T00:05:11.096Z,8.10
2019-02-10T00:07:40.613Z,8.10
2019-02-10T00:10:10.135Z,8.10
2019-02-10T00:12:39.622Z,8.10
2019-02-10T00:15:09.141Z,8.10
2019-02-10T00:17:38.638Z,8.10
2019-02-10T00:20:08.106Z,8.10
2019-02-10T00:22:37.616Z,8.10
2019-02-10T00:25:07.353Z,8.10
2019-02-10T00:27:36.821Z,8.10
2019-02-10T00:30:06.346Z,8.10
2019-02-10T00:32:35.842Z,8.10
2019-02-10T00:35:05.420Z,8.20
2019-02-10T00:37:34.928Z,8.20
2019-02-10T00:40:04.427Z,8.10
2019-02-10T00:42:33.930Z,8.10
2019-02-10T00:45:03.443Z,8.20
2019-02-10T00:47:32.908Z,8.20
2019-02-10T00:50:02.461Z,8.20
2019-02-10T00:52:31.981Z,8.20
2019-02-10T00:55:01.484Z,8.10
2019-02-10T00:57:30.929Z,8.10
2019-02-10T01:00:00.421Z,8.10
2019-02-10T01:02:29.914Z,8.10
2019-02-10T01:04:59.410Z,8.10
2019-02-10T01:07:30.115Z,8.10
2019-02-10T01:09:59.604Z,8.10
2019-02-10T01:12:29.115Z,8.10
2019-02-10T01:14:58.688Z,8.10
2019-02-10T01:17:28.154Z,8.10
2019-02-10T01:19:57.722Z,8.10
2019-02-10T01:22:27.186Z,8.10
2019-02-10T01:24:56.694Z,8.10
2019-02-10T01:27:26.186Z,8.10
2019-02-10T01:29:55.659Z,8.10
2019-02-10T01:32:25.178Z,8.00
2019-02-10T01:34:54.694Z,7.90
2019-02-10T01:37:24.162Z,7.90
2019-02-10T01:39:54.375Z,7.90
2019-02-10T01:42:24.017Z,7.90
2019-02-10T01:44:53.495Z,7.80
2019-02-10T01:47:22.950Z,7.80
2019-02-10T01:49:52.492Z,7.80
2019-02-10T01:52:21.952Z,7.80
2019-02-10T01:54:51.401Z,7.80
2019-02-10T01:57:20.885Z,7.70
2019-02-10T01:59:50.343Z,7.80
2019-02-10T02:02:19.867Z,7.70
2019-02-10T02:04:49.352Z,7.70
2019-02-10T02:07:18.866Z,7.60
2019-02-10T02:09:48.344Z,7.60
2019-02-10T02:12:17.840Z,7.60
2019-02-10T02:14:47.362Z,7.50
2019-02-10T02:17:16.845Z,7.60
2019-02-10T02:19:46.277Z,7.60
2019-02-10T02:22:15.769Z,7.60
2019-02-10T02:24:45.223Z,7.60
2019-02-10T02:27:14.701Z,7.60
2019-02-10T02:29:44.234Z,7.50
2019-02-10T02:32:13.712Z,7.60
2019-02-10T02:34:43.178Z,7.60
2019-02-10T02:37:12.678Z,7.60
2019-02-10T02:39:42.158Z,7.60
2019-02-10T02:42:11.645Z,7.60
2019-02-10T02:44:41.117Z,7.60
2019-02-10T02:47:10.627Z,7.60
2019-02-10T02:49:40.119Z,7.60
2019-02-10T02:52:09.717Z,7.60
2019-02-10T02:54:39.225Z,7.70
2019-02-10T02:57:08.695Z,7.70
2019-02-10T02:59:38.220Z,7.70
2019-02-10T03:02:07.705Z,7.70
2019-02-10T03:04:37.164Z,7.70
2019-02-10T03:07:06.683Z,7.70
2019-02-10T03:09:36.160Z,7.70
2019-02-10T03:12:05.635Z,7.70
2019-02-10T03:14:35.155Z,7.60
2019-02-10T03:17:04.656Z,7.60
2019-02-10T03:19:34.119Z,7.70
2019-02-10T03:22:03.629Z,7.60
2019-02-10T03:24:33.047Z,7.60
2019-02-10T03:27:02.513Z,7.60
2019-02-10T03:29:32.060Z,7.50
2019-02-10T03:32:01.547Z,7.50
2019-02-10T03:34:30.988Z,7.50
2019-02-10T03:37:00.500Z,7.40
2019-02-10T03:39:29.965Z,7.40
2019-02-10T03:41:59.443Z,7.40
2019-02-10T03:44:28.960Z,7.40
2019-02-10T03:46:58.470Z,7.50
2019-02-10T03:49:27.973Z,7.40
2019-02-10T03:51:57.477Z,7.30
2019-02-10T03:54:26.922Z,7.30
2019-02-10T03:56:56.414Z,7.30
2019-02-10T03:59:25.912Z,7.30
2019-02-10T04:01:55.377Z,7.40
2019-02-10T04:04:24.846Z,7.40
2019-02-10T04:06:54.326Z,7.40
2019-02-10T04:09:23.798Z,7.40
2019-02-10T04:11:53.278Z,7.40
2019-02-10T04:14:22.791Z,7.40
2019-02-10T04:16:52.254Z,7.40
2019-02-10T04:19:21.741Z,7.30
2019-02-10T04:21:51.227Z,7.30
2019-02-10T04:24:20.708Z,7.30
2019-02-10T04:26:50.192Z,7.30
2019-02-10T04:29:19.707Z,7.30
2019-02-10T04:31:49.303Z,7.20
2019-02-10T04:34:18.738Z,7.20
2019-02-10T04:36:48.213Z,7.20
2019-02-10T04:39:17.701Z,7.20
2019-02-10T04:41:47.195Z,7.10
2019-02-10T04:44:16.690Z,7.00
2019-02-10T04:46:46.180Z,7.00
2019-02-10T04:49:15.709Z,7.00
2019-02-10T04:51:45.217Z,7.00
2019-02-10T04:54:14.700Z,7.00
2019-02-10T04:56:44.393Z,7.10
2019-02-10T04:59:13.903Z,7.00
2019-02-10T05:01:43.367Z,7.00
2019-02-10T05:04:12.866Z,7.10
2019-02-10T05:06:42.324Z,7.10
2019-02-10T05:09:11.772Z,7.10
2019-02-10T05:11:41.331Z,7.00
2019-02-10T05:14:10.825Z,7.00
2019-02-10T05:16:40.295Z,7.10
2019-02-10T05:19:09.800Z,7.00
2019-02-10T05:21:39.272Z,7.10
2019-02-10T05:24:08.739Z,7.10
2019-02-10T05:26:38.219Z,7.10
2019-02-10T05:29:07.769Z,7.10
2019-02-10T05:31:37.207Z,7.00
2019-02-10T05:34:06.649Z,7.00
2019-02-10T05:36:36.147Z,7.00
2019-02-10T05:39:06.610Z,7.00
2019-02-10T05:41:36.077Z,7.00
2019-02-10T05:44:05.566Z,7.00
2019-02-10T05:46:35.057Z,7.00
2019-02-10T05:49:04.613Z,7.00
2019-02-10T05:51:34.087Z,7.00
2019-02-10T05:54:03.554Z,7.00
2019-02-10T05:56:33.045Z,7.00
2019-02-10T05:59:02.652Z,7.00
2019-02-10T06:02:00.127Z,7.00
2019-02-10T06:04:30.084Z,7.00
2019-02-10T06:07:02.297Z,7.00
2019-02-10T06:09:31.778Z,7.00
2019-02-10T06:12:01.275Z,7.00
2019-02-10T06:14:30.774Z,7.00
2019-02-10T06:17:00.237Z,7.00
2019-02-10T06:19:29.756Z,7.00
2019-02-10T06:21:59.231Z,7.00
2019-02-10T06:24:28.741Z,7.00
2019-02-10T06:26:58.232Z,7.00
2019-02-10T06:29:27.743Z,7.00
2019-02-10T06:31:57.231Z,6.90
2019-02-10T06:34:26.755Z,7.00
2019-02-10T06:36:56.265Z,7.00
2019-02-10T06:39:25.777Z,7.00
2019-02-10T06:41:55.230Z,7.00
2019-02-10T06:44:24.711Z,6.90
2019-02-10T06:46:54.213Z,6.90
2019-02-10T06:49:23.701Z,6.90
2019-02-10T06:51:53.142Z,6.90
2019-02-10T06:54:22.624Z,7.00
2019-02-10T06:56:52.119Z,7.00
2019-02-10T06:59:31.587Z,6.90
2019-02-10T07:02:06.500Z,6.90
2019-02-10T07:04:35.995Z,6.90
2019-02-10T07:07:05.447Z,6.90
2019-02-10T07:09:34.951Z,6.90
2019-02-10T07:12:40.913Z,6.90
2019-02-10T07:15:47.107Z,6.90
2019-02-10T07:18:52.472Z,7.00
2019-02-10T07:21:22.252Z,6.90
2019-02-10T07:24:44.760Z,6.90
2019-02-10T07:27:23.572Z,6.90
2019-02-10T07:30:28.778Z,6.90
2019-02-10T07:32:58.326Z,6.90
2019-02-10T07:35:49.079Z,6.90
2019-02-10T07:38:38.503Z,6.90
2019-02-10T07:41:13.389Z,6.90
2019-02-10T07:44:10.521Z,6.90
2019-02-10T07:47:13.300Z,7.00
2019-02-10T07:50:16.255Z,7.00
2019-02-10T07:53:16.407Z,7.00
2019-02-10T07:56:41.126Z,7.00
2019-02-10T07:59:41.704Z,7.00
2019-02-10T08:02:37.159Z,7.00
2019-02-10T08:05:53.607Z,7.00
2019-02-10T08:08:49.592Z,7.00
2019-02-10T08:11:34.902Z,7.10
2019-02-10T08:14:39.480Z,7.10
2019-02-10T08:17:50.682Z,7.10
2019-02-10T08:20:51.597Z,7.10
2019-02-10T08:24:14.167Z,7.10
2019-02-10T08:27:09.129Z,7.10
2019-02-10T08:29:58.176Z,7.10
2019-02-10T08:33:09.141Z,7.20
2019-02-10T08:36:08.634Z,7.20
2019-02-10T08:39:28.313Z,7.20
2019-02-10T08:42:34.534Z,7.30
2019-02-10T08:45:54.217Z,7.30
2019-02-10T08:49:22.871Z,7.30
2019-02-10T08:52:27.059Z,7.40
2019-02-10T08:54:58.012Z,7.50
2019-02-10T08:57:27.469Z,7.60
2019-02-10T08:59:56.941Z,7.60
2019-02-10T09:02:26.489Z,7.60
2019-02-10T09:04:56.017Z,7.70
2019-02-10T09:07:25.473Z,7.70
2019-02-10T09:09:54.978Z,7.70
2019-02-10T09:12:24.585Z,7.70
2019-02-10T09:14:54.087Z,7.80
2019-02-10T09:17:23.579Z,7.80
2019-02-10T09:19:53.076Z,7.80
2019-02-10T09:22:22.563Z,7.80
2019-02-10T09:24:52.094Z,7.80
2019-02-10T09:27:21.552Z,7.80
2019-02-10T09:29:51.015Z,7.80
2019-02-10T09:32:20.543Z,7.80
2019-02-10T09:34:50.062Z,7.70
2019-02-10T09:37:21.117Z,7.70
2019-02-10T09:39:50.635Z,7.60
2019-02-10T09:42:20.069Z,7.70
2019-02-10T09:44:49.569Z,7.70
2019-02-10T09:47:19.050Z,7.70
2019-02-10T09:49:48.562Z,7.60
2019-02-10T09:52:17.993Z,7.60
2019-02-10T09:54:47.455Z,7.60
2019-02-10T09:57:16.971Z,7.50
2019-02-10T09:59:46.478Z,7.50
2019-02-10T10:02:15.962Z,7.60
2019-02-10T10:04:45.473Z,7.50
2019-02-10T10:07:14.945Z,7.60
2019-02-10T10:09:44.416Z,7.60
2019-02-10T10:12:13.917Z,7.70
2019-02-10T10:14:43.390Z,7.70
2019-02-10T10:17:12.882Z,7.80
2019-02-10T10:19:42.361Z,7.80
2019-02-10T10:22:11.834Z,7.80
2019-02-10T10:24:41.361Z,7.90
2019-02-10T10:27:10.851Z,7.80
2019-02-10T10:29:40.363Z,7.80
2019-02-10T10:32:09.910Z,7.80
2019-02-10T10:34:39.413Z,7.70
2019-02-10T10:37:08.886Z,7.70
2019-02-10T10:39:38.384Z,7.70
2019-02-10T10:42:07.876Z,7.60
2019-02-10T10:44:37.417Z,7.70
2019-02-10T10:47:06.893Z,7.70
2019-02-10T10:49:36.413Z,7.70
2019-02-10T10:52:06.032Z,7.70
2019-02-10T10:54:42.639Z,7.70
2019-02-10T10:57:06.663Z,7.70
2019-02-10T10:59:36.163Z,7.80
2019-02-10T11:02:05.636Z,7.80
2019-02-10T11:04:35.130Z,7.80
2019-02-10T11:07:04.625Z,7.70
2019-02-10T11:09:35.561Z,7.70
2019-02-10T11:12:05.390Z,7.70
2019-02-10T11:14:35.013Z,7.70
2019-02-10T11:17:04.516Z,7.70
2019-02-10T11:19:34.005Z,7.70
2019-02-10T11:22:03.555Z,7.70
2019-02-10T11:24:34.061Z,7.80
2019-02-10T11:27:03.585Z,7.80
2019-02-10T11:29:33.101Z,7.80
2019-02-10T11:32:02.757Z,7.80
2019-02-10T11:34:32.322Z,7.80
2019-02-10T11:37:01.892Z,7.80
2019-02-10T11:39:31.525Z,7.80
2019-02-10T11:42:01.069Z,7.90
2019-02-10T11:44:30.624Z,7.80
2019-02-10T11:47:00.255Z,7.70
2019-02-10T11:49:29.964Z,7.70
2019-02-10T11:51:59.621Z,7.70
2019-02-10T11:54:29.281Z,7.70
2019-02-10T11:56:58.893Z,7.80
2019-02-10T11:59:28.369Z,7.80
2019-02-10T12:01:58.309Z,7.80
2019-02-10T12:04:28.072Z,7.80
2019-02-10T12:06:57.712Z,7.80
2019-02-10T12:09:27.350Z,7.90
2019-02-10T12:11:57.110Z,7.90
2019-02-10T12:14:27.083Z,7.90
2019-02-10T12:16:57.377Z,7.90
2019-02-10T12:19:27.358Z,7.90
2019-02-10T12:21:57.240Z,7.90
2019-02-10T12:24:27.182Z,7.80
2019-02-10T12:26:56.641Z,7.80
2019-02-10T12:29:26.146Z,7.80
2019-02-10T12:31:55.671Z,7.70
2019-02-10T12:34:25.158Z,7.70
2019-02-10T12:36:54.701Z,7.70
2019-02-10T12:39:24.207Z,7.70
2019-02-10T12:41:53.673Z,7.70
2019-02-10T12:44:23.219Z,7.60
2019-02-10T12:46:52.709Z,7.70
2019-02-10T12:49:22.200Z,7.70
2019-02-10T12:51:51.829Z,7.60
2019-02-10T12:54:21.341Z,7.60
2019-02-10T12:56:50.911Z,7.60
2019-02-10T12:59:20.402Z,7.60
2019-02-10T13:01:49.927Z,7.60
2019-02-10T13:04:19.517Z,7.60
2019-02-10T13:06:49.027Z,7.60
2019-02-10T13:09:18.639Z,7.60
2019-02-10T13:11:48.260Z,7.60
2019-02-10T13:14:17.760Z,7.60
2019-02-10T13:16:47.480Z,7.60
2019-02-10T13:19:17.139Z,7.60
2019-02-10T13:21:46.809Z,7.50
2019-02-10T13:24:16.626Z,7.50
2019-02-10T13:26:46.270Z,7.50
2019-02-10T13:29:15.870Z,7.50
2019-02-10T13:31:45.655Z,7.50
2019-02-10T13:34:15.462Z,7.50
2019-02-10T13:36:45.430Z,7.50
2019-02-10T13:39:16.034Z,7.50
2019-02-10T13:41:43.919Z,7.50
2019-02-10T13:44:13.604Z,7.50
2019-02-10T13:46:43.423Z,7.50
2019-02-10T13:49:13.298Z,7.50
2019-02-10T13:51:42.893Z,7.40
2019-02-10T13:54:12.542Z,7.30
2019-02-10T13:56:42.226Z,7.30
2019-02-10T13:59:11.823Z,7.30
2019-02-10T14:01:41.395Z,7.20
2019-02-10T14:04:10.976Z,7.20
2019-02-10T14:06:40.636Z,7.10
2019-02-10T14:09:10.299Z,7.10
2019-02-10T14:11:39.911Z,7.10
2019-02-10T14:14:09.528Z,7.10
2019-02-10T14:16:39.199Z,7.10
2019-02-10T14:19:08.886Z,7.10
2019-02-10T14:21:38.538Z,7.20
2019-02-10T14:24:08.297Z,7.20
2019-02-10T14:26:37.858Z,7.20
2019-02-10T14:29:07.532Z,7.20
2019-02-10T14:31:37.409Z,7.20
2019-02-10T14:34:07.034Z,7.20
2019-02-10T14:36:36.942Z,7.20
2019-02-10T14:39:12.817Z,7.20
2019-02-10T14:41:42.492Z,7.20
2019-02-10T14:44:12.228Z,7.20
2019-02-10T14:46:42.396Z,7.20
2019-02-10T14:49:12.449Z,7.20
2019-02-10T14:51:42.416Z,7.30
2019-02-10T14:54:12.286Z,7.30
2019-02-10T14:56:42.301Z,7.30
2019-02-10T14:59:14.091Z,7.30
2019-02-10T15:01:44.038Z,7.30
2019-02-10T15:04:14.088Z,7.20
2019-02-10T15:06:43.756Z,7.30
2019-02-10T15:09:13.575Z,7.30
2019-02-10T15:11:43.469Z,7.30
2019-02-10T15:14:13.208Z,7.40
2019-02-10T15:16:43.197Z,7.40
2019-02-10T15:19:13.084Z,7.50
2019-02-10T15:21:43.111Z,7.50
2019-02-10T15:24:13.104Z,7.50
2019-02-10T15:26:43.394Z,7.40
2019-02-10T15:29:13.339Z,7.40
2019-02-10T15:31:43.148Z,7.30
2019-02-10T15:34:12.850Z,7.30
2019-02-10T15:36:42.529Z,7.30
2019-02-10T15:39:12.646Z,7.30
2019-02-10T15:41:42.522Z,7.30
2019-02-10T15:44:12.456Z,7.30
2019-02-10T15:46:42.592Z,7.40
2019-02-10T15:49:12.786Z,7.40
2019-02-10T15:51:43.021Z,7.40
2019-02-10T15:54:12.885Z,7.40
2019-02-10T15:56:43.064Z,7.20
2019-02-10T15:59:13.261Z,7.20
2019-02-10T16:01:43.501Z,7.10
2019-02-10T16:04:13.785Z,7.00
2019-02-10T16:06:44.013Z,6.90
2019-02-10T16:09:14.233Z,6.90
2019-02-10T16:11:44.472Z,6.80
2019-02-10T16:14:14.581Z,6.80
2019-02-10T16:16:44.784Z,6.80
2019-02-10T16:19:15.087Z,6.80
2019-02-10T16:21:45.296Z,6.80
2019-02-10T16:24:18.374Z,6.80
2019-02-10T16:26:48.533Z,6.80
2019-02-10T16:29:18.823Z,6.80
2019-02-10T16:31:49.080Z,6.90
2019-02-10T16:34:19.330Z,6.90
2019-02-10T16:36:49.595Z,6.90
2019-02-10T16:39:19.890Z,6.90
2019-02-10T16:41:50.005Z,6.90
2019-02-10T16:44:20.336Z,7.00
2019-02-10T16:46:50.618Z,7.00
2019-02-10T16:49:20.895Z,7.00
2019-02-10T16:51:51.192Z,7.10
2019-02-10T16:54:21.449Z,7.00
2019-02-10T16:56:51.746Z,7.10
2019-02-10T16:59:25.041Z,7.10
2019-02-10T17:01:55.250Z,7.10
2019-02-10T17:04:27.073Z,7.10
2019-02-10T17:06:57.313Z,7.20
2019-02-10T17:09:27.771Z,7.20
2019-02-10T17:11:58.142Z,7.20
2019-02-10T17:14:28.402Z,7.20
2019-02-10T17:16:58.617Z,7.20
2019-02-10T17:19:29.080Z,7.20
2019-02-10T17:21:59.342Z,7.20
2019-02-10T17:24:29.585Z,7.20
2019-02-10T17:26:59.867Z,7.10
2019-02-10T17:29:30.084Z,7.10
2019-02-10T17:32:00.327Z,7.10
2019-02-10T17:34:31.976Z,7.10
2019-02-10T17:37:02.253Z,7.10
2019-02-10T17:39:32.569Z,7.10
2019-02-10T17:42:02.879Z,7.10
2019-02-10T17:44:33.113Z,7.20
2019-02-10T17:47:03.363Z,7.10
2019-02-10T17:49:33.631Z,7.10
2019-02-10T17:52:04.011Z,7.10
2019-02-10T17:54:34.300Z,7.10
2019-02-10T17:57:04.557Z,7.20
2019-02-10T17:59:34.794Z,7.20
2019-02-10T18:02:05.118Z,7.20
2019-02-10T18:04:37.525Z,7.20
2019-02-10T18:07:07.286Z,7.20
2019-02-10T18:09:37.329Z,7.20
2019-02-10T18:12:07.576Z,7.20
2019-02-10T18:14:56.527Z,7.30
2019-02-10T18:17:39.048Z,7.20
2019-02-10T18:20:27.310Z,7.20
2019-02-10T18:23:16.127Z,7.20
2019-02-10T18:25:53.381Z,7.20
2019-02-10T18:28:44.451Z,7.20
2019-02-10T18:31:29.679Z,7.20
2019-02-10T18:34:05.590Z,7.30
2019-02-10T18:36:42.892Z,7.30
2019-02-10T18:39:21.092Z,7.30
2019-02-10T18:42:08.731Z,7.30
2019-02-10T18:44:54.375Z,7.30
2019-02-10T18:47:49.133Z,7.30
2019-02-10T18:50:36.537Z,7.30
2019-02-10T18:53:25.562Z,7.30
2019-02-10T18:56:13.256Z,7.20
2019-02-10T18:59:01.263Z,7.20
2019-02-10T19:01:47.584Z,7.20
2019-02-10T19:04:26.883Z,7.20
2019-02-10T19:07:15.894Z,7.20
2019-02-10T19:09:59.547Z,7.20
2019-02-10T19:12:54.600Z,7.20
2019-02-10T19:15:42.377Z,7.30
2019-02-10T19:18:29.055Z,7.20
2019-02-10T19:21:33.137Z,7.20
2019-02-10T19:24:27.550Z,7.20
2019-02-10T19:27:19.516Z,7.20
2019-02-10T19:30:07.066Z,7.20
2019-02-10T19:33:08.085Z,7.10
2019-02-10T19:35:46.355Z,7.10
2019-02-10T19:38:30.352Z,7.10
2019-02-10T19:41:15.291Z,7.10
2019-02-10T19:44:16.326Z,7.20
2019-02-10T19:47:01.405Z,7.10
2019-02-10T19:49:53.370Z,7.20
2019-02-10T19:52:57.125Z,7.20
2019-02-10T19:55:55.103Z,7.20
2019-02-10T19:58:47.003Z,7.20
2019-02-10T20:01:34.695Z,7.20
2019-02-10T20:04:23.729Z,7.20
2019-02-10T20:07:15.575Z,7.20
2019-02-10T20:09:59.761Z,7.20
2019-02-10T20:12:41.294Z,7.20
2019-02-10T20:15:29.272Z,7.20
2019-02-10T20:18:18.309Z,7.20
2019-02-10T20:21:06.013Z,7.20
2019-02-10T20:23:45.683Z,7.20
2019-02-10T20:26:46.913Z,7.20
2019-02-10T20:29:25.201Z,7.10
2019-02-10T20:32:29.378Z,7.20
2019-02-10T20:35:04.676Z,7.20
2019-02-10T20:37:49.450Z,7.10
2019-02-10T20:40:36.705Z,7.10
2019-02-10T20:43:13.584Z,7.10
2019-02-10T20:45:52.742Z,7.10
2019-02-10T20:48:47.631Z,7.10
2019-02-10T20:51:36.813Z,7.10
2019-02-10T20:54:35.556Z,7.10
2019-02-10T20:57:23.440Z,7.10
2019-02-10T21:00:15.308Z,7.10
2019-02-10T21:03:12.590Z,7.10
2019-02-10T21:05:51.779Z,7.10
2019-02-10T21:08:39.563Z,7.10
2019-02-10T21:11:19.981Z,7.00
2019-02-10T21:13:57.676Z,7.10
2019-02-10T21:16:46.493Z,7.10
2019-02-10T21:19:53.531Z,7.10
2019-02-10T21:22:40.846Z,7.10
2019-02-10T21:25:32.648Z,7.10
2019-02-10T21:28:26.934Z,7.10
2019-02-10T21:31:21.266Z,7.00
2019-02-10T21:34:08.350Z,7.00
2019-02-10T21:36:55.360Z,7.00
2019-02-10T21:39:42.452Z,7.00
2019-02-10T21:42:33.615Z,7.00
2019-02-10T21:45:20.569Z,6.90
2019-02-10T21:48:04.411Z,6.90
2019-02-10T21:50:33.809Z,6.80
2019-02-10T21:53:03.299Z,6.80
2019-02-10T21:55:32.823Z,6.80
2019-02-10T21:58:02.292Z,6.70
2019-02-10T22:00:31.775Z,6.70
2019-02-10T22:03:01.301Z,6.70
2019-02-10T22:05:30.736Z,6.70
2019-02-10T22:08:00.189Z,6.60
2019-02-10T22:10:29.684Z,6.60
2019-02-10T22:12:59.204Z,6.60
2019-02-10T22:15:28.702Z,6.60
2019-02-10T22:17:58.262Z,6.70
2019-02-10T22:20:27.759Z,6.70
2019-02-10T22:22:58.279Z,6.80
2019-02-10T22:25:27.788Z,6.80
2019-02-10T22:27:57.247Z,6.80
2019-02-10T22:30:26.774Z,6.80
2019-02-10T22:32:56.255Z,6.80
2019-02-10T22:35:26.636Z,6.80
2019-02-10T22:37:56.603Z,6.70
2019-02-10T22:40:26.060Z,6.70
2019-02-10T22:42:55.556Z,6.60
2019-02-10T22:45:25.062Z,6.50
2019-02-10T22:47:54.532Z,6.50
2019-02-10T22:50:24.090Z,6.40
2019-02-10T22:52:53.586Z,6.40
2019-02-10T22:55:23.047Z,6.30
2019-02-10T22:57:52.573Z,6.30
2019-02-10T23:00:47.273Z,6.20
2019-02-10T23:03:17.240Z,6.20
2019-02-10T23:05:46.831Z,6.10
2019-02-10T23:08:16.504Z,6.10
2019-02-10T23:10:46.040Z,6.00
2019-02-10T23:13:15.448Z,6.10
2019-02-10T23:15:44.978Z,6.00
2019-02-10T23:18:14.476Z,6.00
2019-02-10T23:20:44.023Z,6.00
2019-02-10T23:23:13.586Z,6.00
2019-02-10T23:25:43.099Z,6.00
2019-02-10T23:28:12.560Z,5.90
2019-02-10T23:30:42.091Z,5.90
2019-02-10T23:33:11.569Z,5.90
2019-02-10T23:35:41.057Z,5.90
2019-02-10T23:38:10.522Z,5.80
2019-02-10T23:40:40.013Z,5.80
2019-02-10T23:43:09.480Z,5.80
2019-02-10T23:45:38.957Z,5.80
2019-02-10T23:48:08.453Z,5.70
2019-02-10T23:50:37.941Z,5.70
2019-02-10T23:53:07.851Z,5.70
2019-02-10T23:55:37.358Z,5.70
2019-02-10T23:58:06.849Z,5.60
